sensor_id;sensor_type;location;lat;lon;timestamp;P1;durP1;ratioP1;P2;durP2;ratioP2
69410;SDS011;56604;48.652;9.194;2022-07-29T00:00:07;12.70;;;10.00;;
69410;SDS011;56604;48.652;9.194;2022-07-29T00:02:34;12.80;;;10.00;;
69410;SDS011;56604;48.652;9.194;2022-07-29T00:04:59;11.30;;;10.10;;
69410;SDS011;56604;48.652;9.194;2022-07-29T00:07:25;10.97;;;9.10;;
69410;SDS011;56604;48.652;9.194;2022-07-29T00:09:50;10.83;;;9.80;;
69410;SDS011;56604;48.652;9.194;2022-07-29T00:12:16;10.90;;;9.50;;
69410;SDS011;56604;48.652;9.194;2022-07-29T00:14:42;11.00;;;8.80;;
69410;SDS011;56604;48.652;9.194;2022-07-29T00:17:07;13.57;;;9.67;;
69410;SDS011;56604;48.652;9.194;2022-07-29T00:19:32;8.87;;;7.97;;
69410;SDS011;56604;48.652;9.194;2022-07-29T00:21:59;10.40;;;8.10;;
69410;SDS011;56604;48.652;9.194;2022-07-29T00:24:24;11.27;;;8.27;;
69410;SDS011;56604;48.652;9.194;2022-07-29T00:26:50;9.23;;;8.33;;
69410;SDS011;56604;48.652;9.194;2022-07-29T00:29:15;9.37;;;8.30;;
69410;SDS011;56604;48.652;9.194;2022-07-29T00:31:40;9.63;;;8.37;;
69410;SDS011;56604;48.652;9.194;2022-07-29T00:34:06;12.27;;;7.70;;
69410;SDS011;56604;48.652;9.194;2022-07-29T00:36:51;9.77;;;8.87;;
69410;SDS011;56604;48.652;9.194;2022-07-29T00:39:16;12.83;;;8.50;;
69410;SDS011;56604;48.652;9.194;2022-07-29T00:41:41;8.80;;;8.03;;
69410;SDS011;56604;48.652;9.194;2022-07-29T00:44:07;8.33;;;7.23;;
69410;SDS011;56604;48.652;9.194;2022-07-29T00:46:32;10.30;;;8.30;;
69410;SDS011;56604;48.652;9.194;2022-07-29T00:48:57;9.57;;;8.37;;
69410;SDS011;56604;48.652;9.194;2022-07-29T00:51:23;12.00;;;8.40;;
69410;SDS011;56604;48.652;9.194;2022-07-29T00:53:50;13.00;;;7.90;;
69410;SDS011;56604;48.652;9.194;2022-07-29T00:56:16;9.23;;;7.93;;
69410;SDS011;56604;48.652;9.194;2022-07-29T00:58:41;8.30;;;7.50;;
69410;SDS011;56604;48.652;9.194;2022-07-29T01:01:07;8.83;;;7.80;;
69410;SDS011;56604;48.652;9.194;2022-07-29T01:03:32;8.87;;;7.90;;
69410;SDS011;56604;48.652;9.194;2022-07-29T01:05:57;7.57;;;6.87;;
69410;SDS011;56604;48.652;9.194;2022-07-29T01:08:24;8.03;;;7.33;;
69410;SDS011;56604;48.652;9.194;2022-07-29T01:10:49;7.87;;;7.07;;
69410;SDS011;56604;48.652;9.194;2022-07-29T01:13:16;7.13;;;6.53;;
69410;SDS011;56604;48.652;9.194;2022-07-29T01:15:43;7.23;;;6.63;;
69410;SDS011;56604;48.652;9.194;2022-07-29T01:23:44;8.00;;;7.30;;
69410;SDS011;56604;48.652;9.194;2022-07-29T01:29:03;7.57;;;6.87;;
69410;SDS011;56604;48.652;9.194;2022-07-29T01:34:08;7.27;;;6.57;;
69410;SDS011;56604;48.652;9.194;2022-07-29T01:36:43;9.47;;;6.83;;
69410;SDS011;56604;48.652;9.194;2022-07-29T01:39:17;8.67;;;6.80;;
69410;SDS011;56604;48.652;9.194;2022-07-29T01:42:12;7.23;;;6.63;;
69410;SDS011;56604;48.652;9.194;2022-07-29T01:47:25;7.97;;;6.83;;
69410;SDS011;56604;48.652;9.194;2022-07-29T01:49:56;7.40;;;6.70;;
69410;SDS011;56604;48.652;9.194;2022-07-29T01:52:31;7.30;;;6.40;;
69410;SDS011;56604;48.652;9.194;2022-07-29T01:55:02;7.37;;;6.60;;
69410;SDS011;56604;48.652;9.194;2022-07-29T01:57:32;7.03;;;6.43;;
69410;SDS011;56604;48.652;9.194;2022-07-29T02:00:00;7.40;;;6.70;;
69410;SDS011;56604;48.652;9.194;2022-07-29T02:02:27;7.90;;;7.07;;
69410;SDS011;56604;48.652;9.194;2022-07-29T02:04:55;7.30;;;6.70;;
69410;SDS011;56604;48.652;9.194;2022-07-29T02:07:23;6.30;;;5.80;;
69410;SDS011;56604;48.652;9.194;2022-07-29T02:09:52;6.77;;;6.10;;
69410;SDS011;56604;48.652;9.194;2022-07-29T02:12:19;7.10;;;6.40;;
69410;SDS011;56604;48.652;9.194;2022-07-29T02:14:47;7.10;;;6.10;;
69410;SDS011;56604;48.652;9.194;2022-07-29T02:17:19;7.70;;;6.97;;
69410;SDS011;56604;48.652;9.194;2022-07-29T02:19:56;11.10;;;6.60;;
69410;SDS011;56604;48.652;9.194;2022-07-29T02:22:24;7.53;;;6.70;;
69410;SDS011;56604;48.652;9.194;2022-07-29T02:24:53;6.70;;;6.10;;
69410;SDS011;56604;48.652;9.194;2022-07-29T02:27:20;8.97;;;7.27;;
69410;SDS011;56604;48.652;9.194;2022-07-29T02:29:48;7.73;;;7.00;;
69410;SDS011;56604;48.652;9.194;2022-07-29T02:32:15;8.17;;;7.47;;
69410;SDS011;56604;48.652;9.194;2022-07-29T02:34:42;11.03;;;7.53;;
69410;SDS011;56604;48.652;9.194;2022-07-29T02:37:09;12.30;;;7.47;;
69410;SDS011;56604;48.652;9.194;2022-07-29T02:39:36;7.27;;;6.67;;
69410;SDS011;56604;48.652;9.194;2022-07-29T02:42:05;8.20;;;7.40;;
69410;SDS011;56604;48.652;9.194;2022-07-29T02:44:34;7.80;;;7.10;;
69410;SDS011;56604;48.652;9.194;2022-07-29T02:55:31;8.97;;;7.07;;
69410;SDS011;56604;48.652;9.194;2022-07-29T02:58:00;8.00;;;6.90;;
69410;SDS011;56604;48.652;9.194;2022-07-29T03:00:40;8.30;;;7.37;;
69410;SDS011;56604;48.652;9.194;2022-07-29T03:03:12;7.60;;;6.90;;
69410;SDS011;56604;48.652;9.194;2022-07-29T03:05:39;7.27;;;6.60;;
69410;SDS011;56604;48.652;9.194;2022-07-29T03:08:05;7.30;;;6.70;;
69410;SDS011;56604;48.652;9.194;2022-07-29T03:10:32;9.67;;;7.13;;
69410;SDS011;56604;48.652;9.194;2022-07-29T03:12:58;9.37;;;7.60;;
69410;SDS011;56604;48.652;9.194;2022-07-29T03:15:25;10.20;;;7.40;;
69410;SDS011;56604;48.652;9.194;2022-07-29T03:17:51;8.23;;;7.40;;
69410;SDS011;56604;48.652;9.194;2022-07-29T03:20:18;8.50;;;7.70;;
69410;SDS011;56604;48.652;9.194;2022-07-29T03:22:44;8.40;;;7.60;;
69410;SDS011;56604;48.652;9.194;2022-07-29T03:25:12;7.90;;;7.30;;
69410;SDS011;56604;48.652;9.194;2022-07-29T03:27:39;8.83;;;7.97;;
69410;SDS011;56604;48.652;9.194;2022-07-29T03:30:05;9.67;;;8.77;;
69410;SDS011;56604;48.652;9.194;2022-07-29T03:32:33;7.70;;;7.10;;
69410;SDS011;56604;48.652;9.194;2022-07-29T03:34:58;8.00;;;7.20;;
69410;SDS011;56604;48.652;9.194;2022-07-29T03:37:24;7.73;;;7.20;;
69410;SDS011;56604;48.652;9.194;2022-07-29T03:39:50;8.60;;;7.80;;
69410;SDS011;56604;48.652;9.194;2022-07-29T03:42:17;10.07;;;8.47;;
69410;SDS011;56604;48.652;9.194;2022-07-29T03:44:46;8.20;;;7.50;;
69410;SDS011;56604;48.652;9.194;2022-07-29T03:47:13;9.27;;;8.40;;
69410;SDS011;56604;48.652;9.194;2022-07-29T03:49:39;10.57;;;8.10;;
69410;SDS011;56604;48.652;9.194;2022-07-29T03:52:07;8.30;;;7.53;;
69410;SDS011;56604;48.652;9.194;2022-07-29T03:54:33;8.37;;;7.57;;
69410;SDS011;56604;48.652;9.194;2022-07-29T03:56:59;8.83;;;8.07;;
69410;SDS011;56604;48.652;9.194;2022-07-29T03:59:26;8.33;;;7.63;;
69410;SDS011;56604;48.652;9.194;2022-07-29T04:01:53;11.23;;;8.37;;
69410;SDS011;56604;48.652;9.194;2022-07-29T04:04:21;9.83;;;6.60;;
69410;SDS011;56604;48.652;9.194;2022-07-29T04:06:47;7.30;;;6.60;;
69410;SDS011;56604;48.652;9.194;2022-07-29T04:09:12;7.10;;;6.50;;
69410;SDS011;56604;48.652;9.194;2022-07-29T04:11:38;7.83;;;6.77;;
69410;SDS011;56604;48.652;9.194;2022-07-29T04:14:05;6.80;;;6.30;;
69410;SDS011;56604;48.652;9.194;2022-07-29T04:16:31;6.23;;;5.83;;
69410;SDS011;56604;48.652;9.194;2022-07-29T04:18:56;5.97;;;5.50;;
69410;SDS011;56604;48.652;9.194;2022-07-29T04:21:21;9.03;;;5.53;;
69410;SDS011;56604;48.652;9.194;2022-07-29T04:23:47;11.63;;;5.37;;
69410;SDS011;56604;48.652;9.194;2022-07-29T04:26:15;10.20;;;5.67;;
69410;SDS011;56604;48.652;9.194;2022-07-29T04:28:44;5.83;;;5.33;;
69410;SDS011;56604;48.652;9.194;2022-07-29T04:31:10;6.17;;;5.57;;
69410;SDS011;56604;48.652;9.194;2022-07-29T04:33:36;5.20;;;4.87;;
69410;SDS011;56604;48.652;9.194;2022-07-29T04:36:02;5.40;;;4.33;;
69410;SDS011;56604;48.652;9.194;2022-07-29T04:38:28;5.97;;;4.70;;
69410;SDS011;56604;48.652;9.194;2022-07-29T04:40:53;4.33;;;3.93;;
69410;SDS011;56604;48.652;9.194;2022-07-29T04:43:18;4.53;;;4.30;;
69410;SDS011;56604;48.652;9.194;2022-07-29T04:45:44;5.70;;;3.90;;
69410;SDS011;56604;48.652;9.194;2022-07-29T04:48:09;6.70;;;3.80;;
69410;SDS011;56604;48.652;9.194;2022-07-29T04:50:37;4.90;;;3.87;;
69410;SDS011;56604;48.652;9.194;2022-07-29T04:53:03;3.50;;;3.40;;
69410;SDS011;56604;48.652;9.194;2022-07-29T04:55:28;3.67;;;3.37;;
69410;SDS011;56604;48.652;9.194;2022-07-29T04:57:53;5.40;;;3.97;;
69410;SDS011;56604;48.652;9.194;2022-07-29T05:00:19;4.30;;;3.73;;
69410;SDS011;56604;48.652;9.194;2022-07-29T05:02:44;4.63;;;3.90;;
69410;SDS011;56604;48.652;9.194;2022-07-29T05:05:09;4.70;;;3.50;;
69410;SDS011;56604;48.652;9.194;2022-07-29T05:07:35;3.80;;;3.60;;
69410;SDS011;56604;48.652;9.194;2022-07-29T05:10:00;3.67;;;3.47;;
69410;SDS011;56604;48.652;9.194;2022-07-29T05:12:26;3.60;;;3.20;;
69410;SDS011;56604;48.652;9.194;2022-07-29T05:14:52;3.30;;;3.03;;
69410;SDS011;56604;48.652;9.194;2022-07-29T05:20:20;3.77;;;2.93;;
69410;SDS011;56604;48.652;9.194;2022-07-29T05:22:50;4.90;;;2.47;;
69410;SDS011;56604;48.652;9.194;2022-07-29T05:25:16;2.50;;;2.20;;
69410;SDS011;56604;48.652;9.194;2022-07-29T05:27:41;2.30;;;2.20;;
69410;SDS011;56604;48.652;9.194;2022-07-29T05:30:07;1.90;;;1.80;;
69410;SDS011;56604;48.652;9.194;2022-07-29T05:32:32;2.93;;;2.10;;
69410;SDS011;56604;48.652;9.194;2022-07-29T05:34:58;2.47;;;2.30;;
69410;SDS011;56604;48.652;9.194;2022-07-29T05:37:23;2.00;;;1.90;;
69410;SDS011;56604;48.652;9.194;2022-07-29T05:39:50;2.50;;;2.13;;
69410;SDS011;56604;48.652;9.194;2022-07-29T05:42:21;2.40;;;2.03;;
69410;SDS011;56604;48.652;9.194;2022-07-29T05:44:46;2.60;;;2.10;;
69410;SDS011;56604;48.652;9.194;2022-07-29T05:47:14;2.30;;;2.20;;
69410;SDS011;56604;48.652;9.194;2022-07-29T05:49:39;1.90;;;1.70;;
69410;SDS011;56604;48.652;9.194;2022-07-29T05:52:05;1.83;;;1.70;;
69410;SDS011;56604;48.652;9.194;2022-07-29T05:54:30;2.60;;;2.40;;
69410;SDS011;56604;48.652;9.194;2022-07-29T05:56:55;3.43;;;2.20;;
69410;SDS011;56604;48.652;9.194;2022-07-29T05:59:21;2.67;;;2.07;;
69410;SDS011;56604;48.652;9.194;2022-07-29T06:01:46;2.27;;;1.90;;
69410;SDS011;56604;48.652;9.194;2022-07-29T06:04:11;1.73;;;1.73;;
69410;SDS011;56604;48.652;9.194;2022-07-29T06:06:37;10.90;;;2.10;;
69410;SDS011;56604;48.652;9.194;2022-07-29T06:09:02;6.50;;;2.30;;
69410;SDS011;56604;48.652;9.194;2022-07-29T06:11:28;4.47;;;2.20;;
69410;SDS011;56604;48.652;9.194;2022-07-29T06:13:54;2.30;;;2.20;;
69410;SDS011;56604;48.652;9.194;2022-07-29T06:16:19;2.50;;;2.17;;
69410;SDS011;56604;48.652;9.194;2022-07-29T06:21:26;3.13;;;1.90;;
69410;SDS011;56604;48.652;9.194;2022-07-29T06:23:51;3.57;;;2.27;;
69410;SDS011;56604;48.652;9.194;2022-07-29T06:26:16;2.50;;;2.13;;
69410;SDS011;56604;48.652;9.194;2022-07-29T06:28:42;2.30;;;1.80;;
69410;SDS011;56604;48.652;9.194;2022-07-29T06:33:36;2.10;;;1.90;;
69410;SDS011;56604;48.652;9.194;2022-07-29T06:36:03;2.03;;;1.90;;
69410;SDS011;56604;48.652;9.194;2022-07-29T06:38:30;1.85;;;1.75;;
69410;SDS011;56604;48.652;9.194;2022-07-29T06:40:55;1.65;;;1.65;;
69410;SDS011;56604;48.652;9.194;2022-07-29T06:43:38;2.83;;;1.77;;
69410;SDS011;56604;48.652;9.194;2022-07-29T06:46:07;1.90;;;1.80;;
69410;SDS011;56604;48.652;9.194;2022-07-29T06:48:34;3.88;;;1.77;;
69410;SDS011;56604;48.652;9.194;2022-07-29T06:51:04;2.17;;;1.90;;
69410;SDS011;56604;48.652;9.194;2022-07-29T06:53:30;3.17;;;2.05;;
69410;SDS011;56604;48.652;9.194;2022-07-29T06:55:57;3.30;;;2.20;;
69410;SDS011;56604;48.652;9.194;2022-07-29T06:58:24;2.00;;;1.90;;
69410;SDS011;56604;48.652;9.194;2022-07-29T07:00:51;2.15;;;2.03;;
69410;SDS011;56604;48.652;9.194;2022-07-29T07:03:19;2.30;;;2.03;;
69410;SDS011;56604;48.652;9.194;2022-07-29T07:05:44;2.27;;;2.07;;
69410;SDS011;56604;48.652;9.194;2022-07-29T07:08:11;2.20;;;2.10;;
69410;SDS011;56604;48.652;9.194;2022-07-29T07:10:37;2.03;;;2.00;;
69410;SDS011;56604;48.652;9.194;2022-07-29T07:13:03;2.67;;;2.47;;
69410;SDS011;56604;48.652;9.194;2022-07-29T07:15:32;3.13;;;2.70;;
69410;SDS011;56604;48.652;9.194;2022-07-29T07:17:58;2.37;;;2.23;;
69410;SDS011;56604;48.652;9.194;2022-07-29T07:20:24;2.33;;;2.23;;
69410;SDS011;56604;48.652;9.194;2022-07-29T07:22:50;2.50;;;2.40;;
69410;SDS011;56604;48.652;9.194;2022-07-29T07:25:15;2.80;;;2.60;;
69410;SDS011;56604;48.652;9.194;2022-07-29T07:27:42;2.30;;;2.20;;
69410;SDS011;56604;48.652;9.194;2022-07-29T07:30:10;7.47;;;2.87;;
69410;SDS011;56604;48.652;9.194;2022-07-29T07:32:35;4.13;;;2.70;;
69410;SDS011;56604;48.652;9.194;2022-07-29T07:35:03;2.40;;;2.30;;
69410;SDS011;56604;48.652;9.194;2022-07-29T07:37:29;2.83;;;2.63;;
69410;SDS011;56604;48.652;9.194;2022-07-29T07:39:55;3.00;;;2.80;;
69410;SDS011;56604;48.652;9.194;2022-07-29T07:42:21;2.60;;;2.50;;
69410;SDS011;56604;48.652;9.194;2022-07-29T07:44:47;2.73;;;2.53;;
69410;SDS011;56604;48.652;9.194;2022-07-29T07:47:13;3.93;;;2.63;;
69410;SDS011;56604;48.652;9.194;2022-07-29T07:49:39;4.03;;;3.67;;
69410;SDS011;56604;48.652;9.194;2022-07-29T07:52:05;3.37;;;3.10;;
69410;SDS011;56604;48.652;9.194;2022-07-29T07:54:30;4.57;;;3.20;;
69410;SDS011;56604;48.652;9.194;2022-07-29T07:57:01;6.17;;;3.00;;
69410;SDS011;56604;48.652;9.194;2022-07-29T07:59:27;35.90;;;4.90;;
69410;SDS011;56604;48.652;9.194;2022-07-29T08:01:54;4.37;;;3.00;;
69410;SDS011;56604;48.652;9.194;2022-07-29T08:04:19;3.10;;;2.87;;
69410;SDS011;56604;48.652;9.194;2022-07-29T08:06:46;3.13;;;2.83;;
69410;SDS011;56604;48.652;9.194;2022-07-29T08:09:11;3.73;;;3.43;;
69410;SDS011;56604;48.652;9.194;2022-07-29T08:11:37;3.10;;;3.00;;
69410;SDS011;56604;48.652;9.194;2022-07-29T08:14:02;3.28;;;3.08;;
69410;SDS011;56604;48.652;9.194;2022-07-29T08:16:28;5.38;;;2.88;;
69410;SDS011;56604;48.652;9.194;2022-07-29T08:18:53;2.75;;;2.65;;
69410;SDS011;56604;48.652;9.194;2022-07-29T08:21:22;3.35;;;3.15;;
69410;SDS011;56604;48.652;9.194;2022-07-29T08:23:48;4.93;;;3.28;;
69410;SDS011;56604;48.652;9.194;2022-07-29T08:26:17;2.92;;;2.75;;
69410;SDS011;56604;48.652;9.194;2022-07-29T08:28:43;4.38;;;3.08;;
69410;SDS011;56604;48.652;9.194;2022-07-29T08:31:10;7.10;;;3.08;;
69410;SDS011;56604;48.652;9.194;2022-07-29T08:33:37;5.80;;;3.28;;
69410;SDS011;56604;48.652;9.194;2022-07-29T08:36:02;3.65;;;3.25;;
69410;SDS011;56604;48.652;9.194;2022-07-29T08:38:28;3.35;;;2.97;;
69410;SDS011;56604;48.652;9.194;2022-07-29T08:40:54;3.38;;;3.15;;
69410;SDS011;56604;48.652;9.194;2022-07-29T08:43:19;6.25;;;3.58;;
69410;SDS011;56604;48.652;9.194;2022-07-29T08:45:46;3.17;;;2.95;;
69410;SDS011;56604;48.652;9.194;2022-07-29T08:50:47;4.38;;;3.28;;
69410;SDS011;56604;48.652;9.194;2022-07-29T08:53:14;3.10;;;2.90;;
69410;SDS011;56604;48.652;9.194;2022-07-29T08:55:44;5.05;;;3.25;;
69410;SDS011;56604;48.652;9.194;2022-07-29T08:58:14;5.57;;;3.08;;
69410;SDS011;56604;48.652;9.194;2022-07-29T09:00:42;4.78;;;3.50;;
69410;SDS011;56604;48.652;9.194;2022-07-29T09:03:10;6.13;;;3.50;;
69410;SDS011;56604;48.652;9.194;2022-07-29T09:05:42;4.25;;;3.78;;
69410;SDS011;56604;48.652;9.194;2022-07-29T09:08:10;4.13;;;3.35;;
69410;SDS011;56604;48.652;9.194;2022-07-29T09:10:36;3.97;;;3.55;;
69410;SDS011;56604;48.652;9.194;2022-07-29T09:13:01;6.55;;;3.78;;
69410;SDS011;56604;48.652;9.194;2022-07-29T09:15:27;3.22;;;3.13;;
69410;SDS011;56604;48.652;9.194;2022-07-29T09:17:53;6.28;;;3.30;;
69410;SDS011;56604;48.652;9.194;2022-07-29T09:20:21;3.50;;;3.20;;
69410;SDS011;56604;48.652;9.194;2022-07-29T09:22:48;3.35;;;3.25;;
69410;SDS011;56604;48.652;9.194;2022-07-29T09:25:15;4.28;;;3.97;;
69410;SDS011;56604;48.652;9.194;2022-07-29T09:28:10;6.40;;;4.10;;
69410;SDS011;56604;48.652;9.194;2022-07-29T09:30:53;5.32;;;3.60;;
69410;SDS011;56604;48.652;9.194;2022-07-29T09:33:21;5.35;;;3.70;;
69410;SDS011;56604;48.652;9.194;2022-07-29T09:36:00;4.70;;;3.20;;
69410;SDS011;56604;48.652;9.194;2022-07-29T09:38:28;5.55;;;3.42;;
69410;SDS011;56604;48.652;9.194;2022-07-29T09:41:02;3.40;;;3.25;;
69410;SDS011;56604;48.652;9.194;2022-07-29T09:43:29;3.65;;;3.35;;
69410;SDS011;56604;48.652;9.194;2022-07-29T09:45:54;3.67;;;3.45;;
69410;SDS011;56604;48.652;9.194;2022-07-29T09:48:21;5.13;;;4.10;;
69410;SDS011;56604;48.652;9.194;2022-07-29T09:50:50;12.80;;;4.07;;
69410;SDS011;56604;48.652;9.194;2022-07-29T09:53:36;5.00;;;3.60;;
69410;SDS011;56604;48.652;9.194;2022-07-29T09:56:03;4.40;;;4.00;;
69410;SDS011;56604;48.652;9.194;2022-07-29T09:58:29;4.43;;;3.93;;
69410;SDS011;56604;48.652;9.194;2022-07-29T10:00:55;5.10;;;4.40;;
69410;SDS011;56604;48.652;9.194;2022-07-29T10:03:21;4.87;;;4.37;;
69410;SDS011;56604;48.652;9.194;2022-07-29T10:06:03;6.97;;;4.30;;
69410;SDS011;56604;48.652;9.194;2022-07-29T10:08:33;9.57;;;4.53;;
69410;SDS011;56604;48.652;9.194;2022-07-29T10:11:12;3.93;;;3.63;;
69410;SDS011;56604;48.652;9.194;2022-07-29T10:13:40;6.93;;;3.80;;
69410;SDS011;56604;48.652;9.194;2022-07-29T10:16:06;6.57;;;4.10;;
69410;SDS011;56604;48.652;9.194;2022-07-29T10:18:33;4.33;;;4.03;;
69410;SDS011;56604;48.652;9.194;2022-07-29T10:20:59;5.17;;;4.67;;
69410;SDS011;56604;48.652;9.194;2022-07-29T10:23:26;5.93;;;3.70;;
69410;SDS011;56604;48.652;9.194;2022-07-29T10:25:54;15.87;;;4.30;;
69410;SDS011;56604;48.652;9.194;2022-07-29T10:28:19;5.33;;;4.10;;
69410;SDS011;56604;48.652;9.194;2022-07-29T10:30:45;9.53;;;4.70;;
69410;SDS011;56604;48.652;9.194;2022-07-29T10:33:26;6.20;;;4.33;;
69410;SDS011;56604;48.652;9.194;2022-07-29T10:36:23;5.97;;;4.67;;
69410;SDS011;56604;48.652;9.194;2022-07-29T10:39:23;8.93;;;4.00;;
69410;SDS011;56604;48.652;9.194;2022-07-29T10:44:48;10.57;;;4.73;;
69410;SDS011;56604;48.652;9.194;2022-07-29T10:47:23;9.47;;;4.33;;
69410;SDS011;56604;48.652;9.194;2022-07-29T10:50:00;5.20;;;4.40;;
69410;SDS011;56604;48.652;9.194;2022-07-29T10:53:02;6.20;;;4.33;;
69410;SDS011;56604;48.652;9.194;2022-07-29T11:00:43;6.30;;;4.30;;
69410;SDS011;56604;48.652;9.194;2022-07-29T11:03:10;7.53;;;4.63;;
69410;SDS011;56604;48.652;9.194;2022-07-29T11:06:16;7.30;;;4.30;;
69410;SDS011;56604;48.652;9.194;2022-07-29T11:08:42;6.07;;;4.67;;
69410;SDS011;56604;48.652;9.194;2022-07-29T11:13:46;5.37;;;4.87;;
69410;SDS011;56604;48.652;9.194;2022-07-29T11:16:15;6.63;;;4.47;;
69410;SDS011;56604;48.652;9.194;2022-07-29T11:21:35;9.40;;;5.40;;
69410;SDS011;56604;48.652;9.194;2022-07-29T11:24:14;10.30;;;5.57;;
69410;SDS011;56604;48.652;9.194;2022-07-29T11:32:14;11.50;;;8.27;;
69410;SDS011;56604;48.652;9.194;2022-07-29T11:34:42;11.97;;;7.13;;
69410;SDS011;56604;48.652;9.194;2022-07-29T11:39:38;14.93;;;8.20;;
69410;SDS011;56604;48.652;9.194;2022-07-29T11:45:01;8.43;;;4.60;;
69410;SDS011;56604;48.652;9.194;2022-07-29T11:47:39;7.47;;;4.43;;
69410;SDS011;56604;48.652;9.194;2022-07-29T11:50:10;7.27;;;4.40;;
69410;SDS011;56604;48.652;9.194;2022-07-29T11:52:38;10.70;;;4.80;;
69410;SDS011;56604;48.652;9.194;2022-07-29T11:55:11;7.33;;;4.50;;
69410;SDS011;56604;48.652;9.194;2022-07-29T11:57:45;5.70;;;4.10;;
69410;SDS011;56604;48.652;9.194;2022-07-29T12:00:25;4.63;;;4.20;;
69410;SDS011;56604;48.652;9.194;2022-07-29T12:02:51;7.37;;;4.60;;
69410;SDS011;56604;48.652;9.194;2022-07-29T12:05:17;4.90;;;3.93;;
69410;SDS011;56604;48.652;9.194;2022-07-29T12:07:43;5.00;;;4.47;;
69410;SDS011;56604;48.652;9.194;2022-07-29T12:10:09;9.60;;;4.90;;
69410;SDS011;56604;48.652;9.194;2022-07-29T12:12:35;14.93;;;4.37;;
69410;SDS011;56604;48.652;9.194;2022-07-29T12:15:17;12.40;;;4.40;;
69410;SDS011;56604;48.652;9.194;2022-07-29T12:17:45;7.50;;;4.80;;
69410;SDS011;56604;48.652;9.194;2022-07-29T12:20:12;5.13;;;4.57;;
69410;SDS011;56604;48.652;9.194;2022-07-29T12:22:41;5.77;;;5.27;;
69410;SDS011;56604;48.652;9.194;2022-07-29T12:25:13;9.47;;;4.70;;
69410;SDS011;56604;48.652;9.194;2022-07-29T12:27:40;8.50;;;4.90;;
69410;SDS011;56604;48.652;9.194;2022-07-29T12:30:12;5.60;;;4.97;;
69410;SDS011;56604;48.652;9.194;2022-07-29T12:32:44;6.37;;;4.90;;
69410;SDS011;56604;48.652;9.194;2022-07-29T12:35:15;7.50;;;5.93;;
69410;SDS011;56604;48.652;9.194;2022-07-29T12:37:49;16.03;;;6.20;;
69410;SDS011;56604;48.652;9.194;2022-07-29T12:40:17;11.63;;;5.20;;
69410;SDS011;56604;48.652;9.194;2022-07-29T12:43:26;6.10;;;5.50;;
69410;SDS011;56604;48.652;9.194;2022-07-29T12:45:41;7.40;;;5.33;;
69410;SDS011;56604;48.652;9.194;2022-07-29T12:48:11;11.67;;;4.70;;
69410;SDS011;56604;48.652;9.194;2022-07-29T12:50:51;8.40;;;5.17;;
69410;SDS011;56604;48.652;9.194;2022-07-29T12:53:21;8.40;;;5.23;;
69410;SDS011;56604;48.652;9.194;2022-07-29T12:55:48;4.50;;;4.10;;
69410;SDS011;56604;48.652;9.194;2022-07-29T12:58:36;5.67;;;5.17;;
69410;SDS011;56604;48.652;9.194;2022-07-29T13:03:44;5.73;;;5.10;;
69410;SDS011;56604;48.652;9.194;2022-07-29T13:11:43;5.90;;;4.53;;
69410;SDS011;56604;48.652;9.194;2022-07-29T13:14:13;6.70;;;4.17;;
69410;SDS011;56604;48.652;9.194;2022-07-29T13:17:00;5.63;;;5.17;;
69410;SDS011;56604;48.652;9.194;2022-07-29T13:19:34;7.30;;;6.63;;
69410;SDS011;56604;48.652;9.194;2022-07-29T13:21:59;9.50;;;6.90;;
69410;SDS011;56604;48.652;9.194;2022-07-29T13:24:25;5.80;;;5.23;;
69410;SDS011;56604;48.652;9.194;2022-07-29T13:26:50;8.73;;;6.80;;
69410;SDS011;56604;48.652;9.194;2022-07-29T13:29:16;9.27;;;6.90;;
69410;SDS011;56604;48.652;9.194;2022-07-29T13:31:42;6.70;;;6.10;;
69410;SDS011;56604;48.652;9.194;2022-07-29T13:34:07;7.53;;;6.63;;
69410;SDS011;56604;48.652;9.194;2022-07-29T13:36:33;7.77;;;7.07;;
69410;SDS011;56604;48.652;9.194;2022-07-29T13:38:58;10.07;;;6.50;;
69410;SDS011;56604;48.652;9.194;2022-07-29T13:41:24;8.37;;;6.70;;
69410;SDS011;56604;48.652;9.194;2022-07-29T13:43:49;7.50;;;6.80;;
69410;SDS011;56604;48.652;9.194;2022-07-29T13:46:14;7.80;;;7.00;;
69410;SDS011;56604;48.652;9.194;2022-07-29T13:48:40;9.47;;;7.40;;
69410;SDS011;56604;48.652;9.194;2022-07-29T13:51:06;8.77;;;6.90;;
69410;SDS011;56604;48.652;9.194;2022-07-29T13:53:31;10.37;;;7.80;;
69410;SDS011;56604;48.652;9.194;2022-07-29T13:55:57;7.13;;;6.40;;
69410;SDS011;56604;48.652;9.194;2022-07-29T13:58:23;11.53;;;7.40;;
69410;SDS011;56604;48.652;9.194;2022-07-29T14:00:49;8.20;;;7.40;;
69410;SDS011;56604;48.652;9.194;2022-07-29T14:03:14;8.50;;;6.83;;
69410;SDS011;56604;48.652;9.194;2022-07-29T14:05:40;7.13;;;6.53;;
69410;SDS011;56604;48.652;9.194;2022-07-29T14:08:05;7.60;;;6.87;;
69410;SDS011;56604;48.652;9.194;2022-07-29T14:10:30;7.63;;;6.73;;
69410;SDS011;56604;48.652;9.194;2022-07-29T14:12:56;12.10;;;7.30;;
69410;SDS011;56604;48.652;9.194;2022-07-29T14:15:21;14.00;;;7.70;;
69410;SDS011;56604;48.652;9.194;2022-07-29T14:17:46;7.30;;;6.60;;
69410;SDS011;56604;48.652;9.194;2022-07-29T14:20:12;10.13;;;7.10;;
69410;SDS011;56604;48.652;9.194;2022-07-29T14:22:37;7.17;;;6.57;;
69410;SDS011;56604;48.652;9.194;2022-07-29T14:25:02;10.17;;;6.97;;
69410;SDS011;56604;48.652;9.194;2022-07-29T14:27:28;8.40;;;7.10;;
69410;SDS011;56604;48.652;9.194;2022-07-29T14:29:53;8.20;;;6.93;;
69410;SDS011;56604;48.652;9.194;2022-07-29T14:32:19;10.97;;;7.00;;
69410;SDS011;56604;48.652;9.194;2022-07-29T14:34:44;12.43;;;7.10;;
69410;SDS011;56604;48.652;9.194;2022-07-29T14:37:09;7.20;;;6.60;;
69410;SDS011;56604;48.652;9.194;2022-07-29T14:39:35;9.30;;;6.70;;
69410;SDS011;56604;48.652;9.194;2022-07-29T14:42:01;7.13;;;6.43;;
69410;SDS011;56604;48.652;9.194;2022-07-29T14:44:26;6.63;;;6.13;;
69410;SDS011;56604;48.652;9.194;2022-07-29T14:46:57;7.20;;;6.57;;
69410;SDS011;56604;48.652;9.194;2022-07-29T14:49:24;6.73;;;6.10;;
69410;SDS011;56604;48.652;9.194;2022-07-29T14:51:50;9.83;;;5.83;;
69410;SDS011;56604;48.652;9.194;2022-07-29T14:54:16;9.93;;;5.83;;
69410;SDS011;56604;48.652;9.194;2022-07-29T14:56:41;7.03;;;6.30;;
69410;SDS011;56604;48.652;9.194;2022-07-29T14:59:06;7.23;;;6.00;;
69410;SDS011;56604;48.652;9.194;2022-07-29T15:01:32;9.60;;;6.43;;
69410;SDS011;56604;48.652;9.194;2022-07-29T15:03:57;6.13;;;5.53;;
69410;SDS011;56604;48.652;9.194;2022-07-29T15:06:22;7.80;;;5.60;;
69410;SDS011;56604;48.652;9.194;2022-07-29T15:08:47;6.83;;;6.00;;
69410;SDS011;56604;48.652;9.194;2022-07-29T15:11:13;8.90;;;6.33;;
69410;SDS011;56604;48.652;9.194;2022-07-29T15:13:38;6.77;;;6.07;;
69410;SDS011;56604;48.652;9.194;2022-07-29T15:16:04;7.20;;;6.13;;
69410;SDS011;56604;48.652;9.194;2022-07-29T15:18:30;7.23;;;6.63;;
69410;SDS011;56604;48.652;9.194;2022-07-29T15:20:55;12.17;;;7.10;;
69410;SDS011;56604;48.652;9.194;2022-07-29T15:23:20;9.77;;;6.97;;
69410;SDS011;56604;48.652;9.194;2022-07-29T15:25:46;7.20;;;6.60;;
69410;SDS011;56604;48.652;9.194;2022-07-29T15:28:11;6.80;;;6.20;;
69410;SDS011;56604;48.652;9.194;2022-07-29T15:30:36;12.53;;;6.80;;
69410;SDS011;56604;48.652;9.194;2022-07-29T15:33:05;14.70;;;7.07;;
69410;SDS011;56604;48.652;9.194;2022-07-29T15:35:31;7.97;;;6.90;;
69410;SDS011;56604;48.652;9.194;2022-07-29T15:37:57;7.80;;;7.13;;
69410;SDS011;56604;48.652;9.194;2022-07-29T15:40:22;9.83;;;6.77;;
69410;SDS011;56604;48.652;9.194;2022-07-29T15:42:47;11.03;;;6.50;;
69410;SDS011;56604;48.652;9.194;2022-07-29T15:45:13;10.93;;;6.50;;
69410;SDS011;56604;48.652;9.194;2022-07-29T15:47:38;9.43;;;6.17;;
69410;SDS011;56604;48.652;9.194;2022-07-29T15:50:03;10.50;;;6.13;;
69410;SDS011;56604;48.652;9.194;2022-07-29T15:52:29;6.60;;;5.80;;
69410;SDS011;56604;48.652;9.194;2022-07-29T15:54:55;6.93;;;6.20;;